createdAt,value
2019-05-29T00:00:30.490Z,101764.45
2019-05-29T00:03:06.261Z,101774.36
2019-05-29T00:05:41.321Z,101777.22
2019-05-29T00:08:16.398Z,101779.00
2019-05-29T00:10:51.412Z,101773.14
2019-05-29T00:13:26.364Z,101777.95
2019-05-29T00:16:01.403Z,101781.31
2019-05-29T00:18:36.404Z,101780.88
2019-05-29T00:21:11.977Z,101784.39
2019-05-29T00:23:48.210Z,101778.93
2019-05-29T00:26:23.257Z,101780.64
2019-05-29T00:28:58.345Z,101787.64
2019-05-29T00:31:33.689Z,101797.34
2019-05-29T00:34:08.976Z,101798.36
2019-05-29T00:36:44.026Z,101810.88
2019-05-29T00:39:19.141Z,101808.34
2019-05-29T00:41:54.049Z,101809.77
2019-05-29T00:44:34.412Z,101805.44
2019-05-29T00:47:07.437Z,101803.15
2019-05-29T00:49:42.493Z,101808.89
2019-05-29T00:52:18.360Z,101817.66
2019-05-29T00:54:53.642Z,101816.75
2019-05-29T00:57:29.717Z,101813.81
2019-05-29T01:00:05.378Z,101825.50
2019-05-29T01:02:40.506Z,101827.01
2019-05-29T01:05:16.203Z,101833.16
2019-05-29T01:07:51.417Z,101831.73
2019-05-29T01:10:26.479Z,101838.27
2019-05-29T01:13:01.395Z,101837.35
2019-05-29T01:15:36.459Z,101840.68
2019-05-29T01:18:11.706Z,101844.30
2019-05-29T01:20:46.767Z,101844.33
2019-05-29T01:23:22.443Z,101844.81
2019-05-29T01:25:57.905Z,101846.10
2019-05-29T01:28:33.171Z,101845.11
2019-05-29T01:31:08.892Z,101850.93
2019-05-29T01:33:43.820Z,101852.75
2019-05-29T01:36:19.975Z,101852.56
2019-05-29T01:38:55.053Z,101854.77
2019-05-29T01:41:31.084Z,101863.39
2019-05-29T01:44:06.022Z,101857.97
2019-05-29T01:46:41.081Z,101854.42
2019-05-29T01:49:16.424Z,101860.07
2019-05-29T01:51:52.803Z,101858.88
2019-05-29T01:54:28.021Z,101861.89
2019-05-29T01:57:04.054Z,101866.86
2019-05-29T01:59:38.987Z,101868.00
2019-05-29T02:02:14.040Z,101870.41
2019-05-29T02:04:49.017Z,101868.61
2019-05-29T02:07:24.091Z,101876.14
2019-05-29T02:09:59.146Z,101878.44
2019-05-29T02:12:34.825Z,101878.03
2019-05-29T02:15:24.794Z,101876.94
2019-05-29T02:17:47.729Z,101876.89
2019-05-29T02:20:27.900Z,101878.30
2019-05-29T02:23:03.683Z,101885.46
2019-05-29T02:25:38.758Z,101889.16
2019-05-29T02:28:14.502Z,101895.75
2019-05-29T02:30:49.451Z,101900.45
2019-05-29T02:33:26.146Z,101892.09
2019-05-29T02:36:01.907Z,101897.79
2019-05-29T02:38:37.652Z,101888.41
2019-05-29T02:41:12.571Z,101889.99
2019-05-29T02:43:47.819Z,101892.00
2019-05-29T02:46:24.005Z,101889.70
2019-05-29T02:48:59.507Z,101899.25
2019-05-29T02:51:34.545Z,101902.41
2019-05-29T02:54:10.262Z,101903.05
2019-05-29T02:56:45.319Z,101910.30
2019-05-29T02:59:21.103Z,101908.74
2019-05-29T03:01:56.177Z,101912.48
2019-05-29T03:04:32.815Z,101912.71
2019-05-29T03:07:09.167Z,101917.99
2019-05-29T03:09:44.307Z,101921.67
2019-05-29T03:12:19.250Z,101923.47
2019-05-29T03:14:54.306Z,101925.72
2019-05-29T03:17:29.774Z,101925.82
2019-05-29T03:20:05.158Z,101930.15
2019-05-29T03:22:40.079Z,101937.34
2019-05-29T03:25:15.140Z,101941.30
2019-05-29T03:27:50.100Z,101943.48
2019-05-29T03:30:29.765Z,101941.80
2019-05-29T03:33:02.565Z,101944.59
2019-05-29T03:35:46.195Z,101952.41
2019-05-29T03:38:14.342Z,101948.98
2019-05-29T03:40:49.448Z,101951.75
2019-05-29T03:43:24.375Z,101957.61
2019-05-29T03:45:59.438Z,101960.88
2019-05-29T03:48:34.635Z,101958.36
2019-05-29T03:51:09.686Z,101956.73
2019-05-29T03:53:45.905Z,101960.38
2019-05-29T03:56:20.950Z,101962.89
2019-05-29T03:58:56.036Z,101962.61
2019-05-29T04:01:31.798Z,101957.80
2019-05-29T04:04:07.744Z,101966.86
2019-05-29T04:06:47.066Z,101972.41
2019-05-29T04:09:19.446Z,101976.73
2019-05-29T04:11:55.138Z,101980.77
2019-05-29T04:14:31.522Z,101980.16
2019-05-29T04:17:08.100Z,101984.59
2019-05-29T04:19:44.903Z,101987.00
2019-05-29T04:22:24.797Z,101986.72
2019-05-29T04:25:02.688Z,101994.14
2019-05-29T04:27:40.412Z,101993.84
2019-05-29T04:30:15.852Z,101990.92
2019-05-29T04:32:50.989Z,101989.92
2019-05-29T04:35:26.165Z,102002.81
2019-05-29T04:38:01.130Z,102006.14
2019-05-29T04:40:37.439Z,102010.67
2019-05-29T04:43:12.861Z,102019.02
2019-05-29T04:45:47.946Z,102025.68
2019-05-29T04:48:22.979Z,102027.07
2019-05-29T04:50:57.976Z,102030.80
2019-05-29T04:53:35.132Z,102037.44
2019-05-29T04:56:10.491Z,102040.37
2019-05-29T04:58:45.550Z,102039.44
2019-05-29T05:01:20.629Z,102043.23
2019-05-29T05:03:55.561Z,102043.76
2019-05-29T05:06:31.186Z,102054.27
2019-05-29T05:09:07.922Z,102061.32
2019-05-29T05:11:42.977Z,102062.92
2019-05-29T05:14:17.960Z,102063.74
2019-05-29T05:16:54.054Z,102072.88
2019-05-29T05:19:29.727Z,102081.63
2019-05-29T05:22:06.486Z,102073.41
2019-05-29T05:24:43.978Z,102079.07
2019-05-29T05:27:18.245Z,102077.10
2019-05-29T05:29:53.296Z,102080.18
2019-05-29T05:32:28.372Z,102095.41
2019-05-29T05:35:03.749Z,102085.16
2019-05-29T05:37:38.948Z,102095.42
2019-05-29T05:40:13.987Z,102097.10
2019-05-29T05:42:49.741Z,102094.94
2019-05-29T05:45:24.742Z,102101.42
2019-05-29T05:47:59.927Z,102104.84
2019-05-29T05:50:35.104Z,102112.20
2019-05-29T05:53:10.832Z,102111.91
2019-05-29T05:55:45.819Z,102119.22
2019-05-29T05:58:20.894Z,102122.02
2019-05-29T06:00:56.304Z,102124.38
2019-05-29T06:03:31.855Z,102119.22
2019-05-29T06:06:07.120Z,102117.95
2019-05-29T06:08:43.169Z,102120.63
2019-05-29T06:11:19.230Z,102126.00
2019-05-29T06:13:54.354Z,102128.90
2019-05-29T06:16:29.728Z,102132.94
2019-05-29T06:19:11.119Z,102134.55
2019-05-29T06:21:46.073Z,102136.24
2019-05-29T06:24:21.287Z,102137.08
2019-05-29T06:26:56.467Z,102141.36
2019-05-29T06:29:31.603Z,102139.11
2019-05-29T06:32:07.610Z,102139.80
2019-05-29T06:34:43.816Z,102140.34
2019-05-29T06:37:19.115Z,102143.80
2019-05-29T06:39:54.233Z,102141.47
2019-05-29T06:42:29.377Z,102142.09
2019-05-29T06:45:05.198Z,102153.21
2019-05-29T06:47:42.752Z,102156.48
2019-05-29T06:50:18.408Z,102155.14
2019-05-29T06:52:53.463Z,102158.52
2019-05-29T06:55:28.619Z,102165.87
2019-05-29T06:58:03.810Z,102163.42
2019-05-29T07:00:39.382Z,102162.69
2019-05-29T07:03:15.853Z,102167.08
2019-05-29T07:05:52.849Z,102168.36
2019-05-29T07:08:38.228Z,102169.21
2019-05-29T07:11:04.478Z,102168.94
2019-05-29T07:13:41.893Z,102175.29
2019-05-29T07:16:16.621Z,102178.41
2019-05-29T07:21:28.642Z,102184.05
2019-05-29T07:24:04.544Z,102189.00
2019-05-29T07:26:41.004Z,102189.55
2019-05-29T07:29:16.278Z,102187.33
2019-05-29T07:31:52.609Z,102195.14
2019-05-29T07:34:27.914Z,102189.52
2019-05-29T07:37:03.733Z,102189.30
2019-05-29T07:39:39.703Z,102191.16
2019-05-29T07:42:22.834Z,102193.98
2019-05-29T07:44:58.689Z,102191.14
2019-05-29T07:47:35.083Z,102186.88
2019-05-29T07:50:10.531Z,102190.73
2019-05-29T07:52:47.112Z,102192.21
2019-05-29T07:55:23.943Z,102189.71
2019-05-29T07:57:58.992Z,102190.38
2019-05-29T08:00:36.176Z,102201.02
2019-05-29T08:03:11.036Z,102199.91
2019-05-29T08:05:51.008Z,102200.05
2019-05-29T08:08:23.094Z,102204.18
2019-05-29T08:10:58.914Z,102202.31
2019-05-29T08:13:34.247Z,102203.32
2019-05-29T08:16:09.479Z,102210.41
2019-05-29T08:18:46.196Z,102204.03
2019-05-29T08:21:21.884Z,102209.59
2019-05-29T08:23:57.413Z,102217.06
2019-05-29T08:26:33.139Z,102210.92
2019-05-29T08:29:08.471Z,102216.28
2019-05-29T08:31:44.736Z,102215.91
2019-05-29T08:34:19.975Z,102220.72
2019-05-29T08:37:06.571Z,102222.55
2019-05-29T08:39:36.630Z,102217.79
2019-05-29T08:42:22.380Z,102200.44
2019-05-29T08:44:47.662Z,102205.34
2019-05-29T08:47:22.873Z,102204.35
2019-05-29T08:50:16.722Z,102205.34
2019-05-29T08:52:36.107Z,102212.53
2019-05-29T08:55:13.859Z,102210.64
2019-05-29T08:57:50.447Z,102209.17
2019-05-29T09:00:26.796Z,102223.02
2019-05-29T09:03:06.860Z,102221.33
2019-05-29T09:05:42.781Z,102214.33
2019-05-29T09:08:18.168Z,102217.38
2019-05-29T09:10:54.111Z,102217.22
2019-05-29T09:13:29.621Z,102216.73
2019-05-29T09:16:04.728Z,102228.11
2019-05-29T09:18:39.742Z,102230.83
2019-05-29T09:21:16.286Z,102225.66
2019-05-29T09:23:51.856Z,102225.53
2019-05-29T09:26:27.253Z,102227.05
2019-05-29T09:29:02.331Z,102229.60
2019-05-29T09:31:38.167Z,102228.73
2019-05-29T09:34:13.715Z,102220.41
2019-05-29T09:36:50.597Z,102224.61
2019-05-29T09:39:25.969Z,102224.86
2019-05-29T09:42:02.292Z,102231.59
2019-05-29T09:44:39.094Z,102234.81
2019-05-29T09:47:16.790Z,102239.28
2019-05-29T09:49:51.036Z,102237.26
2019-05-29T09:52:30.254Z,102243.11
2019-05-29T09:55:03.026Z,102246.20
2019-05-29T09:57:38.589Z,102244.76
2019-05-29T10:00:14.991Z,102244.89
2019-05-29T10:02:50.222Z,102240.14
2019-05-29T10:05:25.380Z,102240.77
2019-05-29T10:08:02.363Z,102246.16
2019-05-29T10:10:37.512Z,102247.41
2019-05-29T10:13:12.775Z,102246.38
2019-05-29T10:15:47.971Z,102245.19
2019-05-29T10:18:31.930Z,102247.00
2019-05-29T10:21:01.283Z,102244.16
2019-05-29T10:23:36.504Z,102245.28
2019-05-29T10:26:14.415Z,102241.16
2019-05-29T10:29:02.809Z,102238.70
2019-05-29T10:31:26.485Z,102241.66
2019-05-29T10:34:02.285Z,102239.20
2019-05-29T10:36:38.136Z,102243.95
2019-05-29T10:39:13.259Z,102240.30
2019-05-29T10:41:48.866Z,102244.23
2019-05-29T10:44:25.429Z,102250.68
2019-05-29T10:47:00.800Z,102244.73
2019-05-29T10:49:36.057Z,102251.45
2019-05-29T10:52:16.460Z,102244.31
2019-05-29T10:54:48.264Z,102247.59
2019-05-29T10:57:23.301Z,102241.74
2019-05-29T10:59:58.467Z,102245.31
2019-05-29T11:02:33.852Z,102240.66
2019-05-29T11:05:09.425Z,102239.31
2019-05-29T11:07:45.712Z,102236.25
2019-05-29T11:10:21.048Z,102232.78
2019-05-29T11:12:57.178Z,102234.59
2019-05-29T11:15:32.514Z,102243.66
2019-05-29T11:18:10.936Z,102241.25
2019-05-29T11:20:47.249Z,102236.65
2019-05-29T11:23:22.409Z,102232.66
2019-05-29T11:25:58.221Z,102233.38
2019-05-29T11:28:34.765Z,102235.43
2019-05-29T11:31:10.665Z,102244.63
2019-05-29T11:33:46.070Z,102236.45
2019-05-29T11:36:21.292Z,102229.20
2019-05-29T11:38:57.324Z,102226.39
2019-05-29T11:41:35.750Z,102240.06
2019-05-29T11:44:11.883Z,102230.75
2019-05-29T11:46:47.175Z,102229.48
2019-05-29T11:49:22.414Z,102231.58
2019-05-29T11:52:18.690Z,102232.23
2019-05-29T11:54:35.568Z,102227.41
2019-05-29T11:57:11.639Z,102225.52
2019-05-29T11:59:47.561Z,102230.09
2019-05-29T12:02:23.025Z,102231.84
2019-05-29T12:05:02.696Z,102224.39
2019-05-29T12:07:37.743Z,102233.03
2019-05-29T12:10:14.797Z,102223.61
2019-05-29T12:12:53.843Z,102228.53
2019-05-29T12:15:28.909Z,102225.36
2019-05-29T12:18:22.199Z,102227.73
2019-05-29T12:20:40.829Z,102222.87
2019-05-29T12:23:25.699Z,102220.56
2019-05-29T12:26:12.533Z,102212.66
2019-05-29T12:28:29.436Z,102219.23
2019-05-29T12:31:04.754Z,102220.85
2019-05-29T12:33:39.913Z,102213.81
2019-05-29T12:36:15.149Z,102212.48
2019-05-29T12:38:50.187Z,102214.31
2019-05-29T12:41:25.245Z,102215.41
2019-05-29T12:44:01.992Z,102210.10
2019-05-29T12:46:37.164Z,102208.15
2019-05-29T12:49:12.658Z,102200.86
2019-05-29T12:51:47.821Z,102204.80
2019-05-29T12:54:23.188Z,102207.01
2019-05-29T12:56:59.947Z,102203.41
2019-05-29T12:59:35.210Z,102205.41
2019-05-29T13:02:10.308Z,102197.59
2019-05-29T13:05:07.109Z,102199.36
2019-05-29T13:07:25.245Z,102204.77
2019-05-29T13:10:02.825Z,102198.84
2019-05-29T13:12:38.457Z,102203.19
2019-05-29T13:15:16.068Z,102203.21
2019-05-29T13:17:55.540Z,102192.42
2019-05-29T13:20:28.081Z,102198.49
2019-05-29T13:23:05.466Z,102194.54
2019-05-29T13:25:40.363Z,102194.05
2019-05-29T13:28:15.378Z,102198.53
2019-05-29T13:30:50.571Z,102199.75
2019-05-29T13:33:25.607Z,102192.98
2019-05-29T13:36:02.125Z,102191.93
2019-05-29T13:38:37.409Z,102201.25
2019-05-29T13:41:12.468Z,102187.05
2019-05-29T13:43:47.651Z,102191.71
2019-05-29T13:46:27.964Z,102185.72
2019-05-29T13:49:03.240Z,102186.95
2019-05-29T13:51:38.443Z,102184.42
2019-05-29T13:54:17.723Z,102186.89
2019-05-29T13:56:50.990Z,102171.59
2019-05-29T13:59:29.177Z,102170.56
2019-05-29T14:02:06.309Z,102172.05
2019-05-29T14:04:41.506Z,102166.13
2019-05-29T14:07:16.659Z,102172.48
2019-05-29T14:09:51.821Z,102156.52
2019-05-29T14:12:28.080Z,102157.03
2019-05-29T14:15:04.486Z,102156.87
2019-05-29T14:17:42.239Z,102157.72
2019-05-29T14:20:18.062Z,102156.04
2019-05-29T14:22:53.208Z,102160.66
2019-05-29T14:25:28.339Z,102164.80
2019-05-29T14:28:04.559Z,102148.45
2019-05-29T14:30:39.775Z,102150.52
2019-05-29T14:33:15.398Z,102144.40
2019-05-29T14:35:50.518Z,102155.81
2019-05-29T14:38:26.448Z,102150.41
2019-05-29T14:41:03.556Z,102151.72
2019-05-29T14:43:40.066Z,102146.45
2019-05-29T14:46:18.074Z,102146.22
2019-05-29T14:48:53.250Z,102144.09
2019-05-29T14:51:28.866Z,102138.56
2019-05-29T14:54:04.735Z,102144.31
2019-05-29T14:56:40.065Z,102148.81
2019-05-29T14:59:15.579Z,102148.58
2019-05-29T15:01:51.533Z,102140.98
2019-05-29T15:04:26.844Z,102152.38
2019-05-29T15:07:06.063Z,102149.55
2019-05-29T15:09:41.208Z,102145.08
2019-05-29T15:12:16.718Z,102144.59
2019-05-29T15:14:52.007Z,102142.60
2019-05-29T15:17:27.190Z,102149.41
2019-05-29T15:20:03.552Z,102141.89
2019-05-29T15:22:39.500Z,102148.70
2019-05-29T15:25:23.491Z,102144.59
2019-05-29T15:27:52.786Z,102147.12
2019-05-29T15:30:28.670Z,102147.67
2019-05-29T15:33:03.905Z,102151.98
2019-05-29T15:35:39.634Z,102143.61
2019-05-29T15:38:16.929Z,102144.99
2019-05-29T15:40:52.244Z,102136.33
2019-05-29T15:43:27.399Z,102141.81
2019-05-29T15:46:03.376Z,102140.41
2019-05-29T15:48:38.666Z,102132.21
2019-05-29T15:51:15.098Z,102130.17
2019-05-29T15:53:50.573Z,102137.59
2019-05-29T15:56:28.145Z,102131.77
2019-05-29T15:59:02.810Z,102122.28
2019-05-29T16:01:39.526Z,102126.47
2019-05-29T16:04:15.768Z,102125.31
2019-05-29T16:06:54.871Z,102123.41
2019-05-29T16:09:29.841Z,102120.32
2019-05-29T16:12:08.555Z,102114.24
2019-05-29T16:14:43.788Z,102119.82
2019-05-29T16:17:54.471Z,102121.84
2019-05-29T16:21:06.499Z,102119.45
2019-05-29T16:24:19.779Z,102112.98
2019-05-29T16:27:08.011Z,102107.52
2019-05-29T16:29:32.480Z,102110.95
2019-05-29T16:32:08.466Z,102107.27
2019-05-29T16:34:44.632Z,102107.72
2019-05-29T16:37:20.046Z,102101.85
2019-05-29T16:39:55.234Z,102097.91
2019-05-29T16:42:30.394Z,102095.04
2019-05-29T16:45:06.756Z,102094.48
2019-05-29T16:47:41.816Z,102097.61
2019-05-29T16:50:19.464Z,102092.78
2019-05-29T16:52:56.147Z,102094.74
2019-05-29T16:55:31.277Z,102095.93
2019-05-29T16:58:06.649Z,102093.49
2019-05-29T17:00:41.768Z,102089.92
2019-05-29T17:03:17.672Z,102086.49
2019-05-29T17:05:53.217Z,102088.22
2019-05-29T17:08:28.244Z,102089.56
2019-05-29T17:11:05.037Z,102083.84
2019-05-29T17:13:43.330Z,102084.31
2019-05-29T17:16:18.574Z,102084.25
2019-05-29T17:18:55.253Z,102079.70
2019-05-29T17:21:30.271Z,102088.78
2019-05-29T17:24:05.443Z,102086.09
2019-05-29T17:26:40.646Z,102084.70
2019-05-29T17:29:16.968Z,102081.05
2019-05-29T17:31:51.972Z,102080.08
2019-05-29T17:34:27.809Z,102083.66
2019-05-29T17:37:03.026Z,102083.52
2019-05-29T17:39:38.111Z,102088.58
2019-05-29T17:42:48.021Z,102088.09
2019-05-29T17:45:25.745Z,102090.77
2019-05-29T17:48:00.638Z,102092.94
2019-05-29T17:50:35.785Z,102096.62
2019-05-29T17:53:11.026Z,102096.03
2019-05-29T17:55:47.215Z,102089.53
2019-05-29T17:58:24.703Z,102085.30
2019-05-29T18:00:59.991Z,102085.24
2019-05-29T18:03:35.689Z,102088.05
2019-05-29T18:06:11.274Z,102081.03
2019-05-29T18:08:46.324Z,102086.99
2019-05-29T18:11:21.503Z,102093.16
2019-05-29T18:13:56.659Z,102085.58
2019-05-29T18:16:32.532Z,102088.65
2019-05-29T18:19:28.365Z,102091.86
2019-05-29T18:22:03.619Z,102088.42
2019-05-29T18:24:38.787Z,102090.17
2019-05-29T18:27:13.985Z,102086.53
2019-05-29T18:29:49.205Z,102088.97
2019-05-29T18:32:24.535Z,102083.64
2019-05-29T18:35:00.348Z,102080.98
2019-05-29T18:37:35.481Z,102071.38
2019-05-29T18:40:12.816Z,102076.95
2019-05-29T18:42:48.256Z,102078.27
2019-05-29T18:45:27.889Z,102076.58
2019-05-29T18:48:07.538Z,102071.20
2019-05-29T18:50:44.366Z,102069.61
2019-05-29T18:53:20.708Z,102070.58
2019-05-29T18:55:55.847Z,102076.38
2019-05-29T18:58:32.898Z,102080.58
2019-05-29T19:01:14.154Z,102079.41
2019-05-29T19:03:51.580Z,102083.83
2019-05-29T19:06:27.662Z,102080.80
2019-05-29T19:09:04.197Z,102079.63
2019-05-29T19:11:39.545Z,102081.16
2019-05-29T19:14:14.703Z,102084.55
2019-05-29T19:16:49.950Z,102083.31
2019-05-29T19:19:26.190Z,102092.48
2019-05-29T19:22:03.713Z,102093.28
2019-05-29T19:24:38.859Z,102090.44
2019-05-29T19:27:27.965Z,102088.37
2019-05-29T19:29:50.965Z,102091.98
2019-05-29T19:32:27.309Z,102092.08
2019-05-29T19:35:03.567Z,102103.12
2019-05-29T19:37:39.238Z,102104.95
2019-05-29T19:40:14.721Z,102106.98
2019-05-29T19:42:49.781Z,102105.34
2019-05-29T19:45:26.448Z,102111.23
2019-05-29T19:48:01.945Z,102111.61
2019-05-29T19:50:39.739Z,102118.14
2019-05-29T19:53:15.998Z,102115.39
2019-05-29T19:55:51.228Z,102113.76
2019-05-29T19:58:27.662Z,102112.91
2019-05-29T20:01:06.777Z,102119.64
2019-05-29T20:03:42.692Z,102109.73
2019-05-29T20:06:17.961Z,102119.34
2019-05-29T20:08:53.320Z,102123.39
2019-05-29T20:11:29.433Z,102127.94
2019-05-29T20:14:07.593Z,102129.85
2019-05-29T20:16:43.125Z,102131.81
2019-05-29T20:19:18.333Z,102128.18
2019-05-29T20:21:54.549Z,102123.19
2019-05-29T20:24:30.700Z,102125.97
2019-05-29T20:27:05.995Z,102120.38
2019-05-29T20:29:41.135Z,102120.44
2019-05-29T20:32:18.619Z,102121.92
2019-05-29T20:34:53.899Z,102126.45
2019-05-29T20:37:30.002Z,102121.72
2019-05-29T20:40:05.499Z,102118.41
2019-05-29T20:42:40.793Z,102115.05
2019-05-29T20:45:16.475Z,102126.73
2019-05-29T20:47:53.168Z,102125.57
2019-05-29T20:50:28.947Z,102132.92
2019-05-29T20:53:04.172Z,102133.65
2019-05-29T20:55:39.788Z,102132.59
2019-05-29T20:58:24.479Z,102134.86
2019-05-29T21:00:51.813Z,102132.22
2019-05-29T21:03:27.276Z,102134.86
2019-05-29T21:06:03.500Z,102128.94
2019-05-29T21:08:38.970Z,102131.23
2019-05-29T21:11:14.658Z,102139.72
2019-05-29T21:13:49.798Z,102137.91
2019-05-29T21:16:24.937Z,102140.12
2019-05-29T21:19:00.125Z,102139.73
2019-05-29T21:21:36.251Z,102137.89
2019-05-29T21:24:11.501Z,102136.41
2019-05-29T21:26:46.520Z,102142.23
2019-05-29T21:29:21.586Z,102134.80
2019-05-29T21:31:56.621Z,102125.34
2019-05-29T21:34:31.698Z,102120.52
2019-05-29T21:37:06.863Z,102123.48
2019-05-29T21:39:42.429Z,102127.89
2019-05-29T21:42:19.194Z,102123.93
2019-05-29T21:44:54.251Z,102123.09
2019-05-29T21:47:29.457Z,102128.02
2019-05-29T21:50:05.082Z,102123.76
2019-05-29T21:52:41.443Z,102122.05
2019-05-29T21:55:17.348Z,102120.55
2019-05-29T21:57:52.520Z,102120.25
2019-05-29T22:00:35.867Z,102128.41
2019-05-29T22:03:11.100Z,102125.17
2019-05-29T22:05:46.795Z,102130.00
2019-05-29T22:08:23.049Z,102126.34
2019-05-29T22:10:59.612Z,102123.45
2019-05-29T22:13:34.964Z,102120.25
2019-05-29T22:16:10.207Z,102123.06
2019-05-29T22:18:45.451Z,102118.76
2019-05-29T22:21:20.640Z,102120.38
2019-05-29T22:23:57.109Z,102114.63
2019-05-29T22:26:32.274Z,102111.94
2019-05-29T22:29:17.899Z,102109.36
2019-05-29T22:31:45.679Z,102097.44
2019-05-29T22:34:22.578Z,102099.55
2019-05-29T22:36:59.650Z,102096.30
2019-05-29T22:39:34.732Z,102092.13
2019-05-29T22:42:09.944Z,102095.91
2019-05-29T22:44:45.603Z,102093.14
2019-05-29T22:47:21.203Z,102090.80
2019-05-29T22:49:57.837Z,102091.37
2019-05-29T22:52:33.451Z,102092.69
2019-05-29T22:55:09.066Z,102091.37
2019-05-29T22:57:44.243Z,102089.58
2019-05-29T23:00:20.075Z,102091.64
2019-05-29T23:02:56.143Z,102090.95
2019-05-29T23:05:31.482Z,102089.75
2019-05-29T23:08:08.919Z,102089.53
2019-05-29T23:10:44.525Z,102084.48
2019-05-29T23:13:20.571Z,102075.55
2019-05-29T23:15:56.646Z,102076.70
2019-05-29T23:18:31.928Z,102074.56
2019-05-29T23:21:43.026Z,102075.38
2019-05-29T23:24:18.377Z,102073.94
2019-05-29T23:26:54.898Z,102070.11
2019-05-29T23:29:30.024Z,102072.97
2019-05-29T23:32:05.059Z,102068.97
2019-05-29T23:34:41.333Z,102064.31
2019-05-29T23:37:16.425Z,102061.20
2019-05-29T23:39:51.441Z,102060.48
2019-05-29T23:42:26.492Z,102056.63
2019-05-29T23:45:05.602Z,102056.63
2019-05-29T23:47:47.450Z,102052.16
2019-05-29T23:50:23.829Z,102052.16
2019-05-29T23:52:59.665Z,102046.36
2019-05-29T23:55:34.830Z,102042.30
2019-05-29T23:58:09.849Z,102039.27
